createdAt,value
2019-01-12T00:01:17.541Z,77.28
2019-01-12T00:03:49.047Z,77.51
2019-01-12T00:06:20.453Z,77.31
2019-01-12T00:08:51.877Z,77.00
2019-01-12T00:11:23.197Z,77.14
2019-01-12T00:13:54.638Z,77.15
2019-01-12T00:16:25.998Z,77.51
2019-01-12T00:18:57.310Z,77.75
2019-01-12T00:21:28.655Z,77.77
2019-01-12T00:24:00.089Z,77.99
2019-01-12T00:26:31.481Z,77.60
2019-01-12T00:29:02.856Z,77.81
2019-01-12T00:31:33.957Z,77.78
2019-01-12T00:34:05.447Z,77.79
2019-01-12T00:36:36.764Z,77.90
2019-01-12T00:39:09.375Z,77.60
2019-01-12T00:41:40.800Z,77.66
2019-01-12T00:44:12.056Z,77.41
2019-01-12T00:46:43.321Z,77.53
2019-01-12T00:49:14.412Z,77.53
2019-01-12T00:51:45.526Z,77.36
2019-01-12T00:54:16.639Z,76.89
2019-01-12T00:56:47.677Z,76.50
2019-01-12T00:59:18.868Z,75.87
2019-01-12T01:01:49.916Z,75.49
2019-01-12T01:04:21.068Z,75.64
2019-01-12T01:06:52.149Z,75.73
2019-01-12T01:09:23.324Z,75.39
2019-01-12T01:11:54.823Z,75.30
2019-01-12T01:14:26.055Z,75.50
2019-01-12T01:16:57.475Z,75.60
2019-01-12T01:19:28.611Z,75.98
2019-01-12T01:21:59.681Z,76.69
2019-01-12T01:24:31.273Z,77.16
2019-01-12T01:27:02.623Z,77.14
2019-01-12T01:29:33.719Z,76.64
2019-01-12T01:32:05.183Z,76.62
2019-01-12T01:34:36.261Z,76.47
2019-01-12T01:37:08.686Z,76.04
2019-01-12T01:39:39.938Z,76.21
2019-01-12T01:42:11.226Z,76.73
2019-01-12T01:44:42.620Z,76.69
2019-01-12T01:47:13.823Z,76.39
2019-01-12T01:49:45.068Z,76.85
2019-01-12T01:52:16.290Z,77.09
2019-01-12T01:54:52.788Z,76.95
2019-01-12T01:57:20.806Z,76.71
2019-01-12T01:59:51.908Z,76.72
2019-01-12T02:02:23.223Z,76.31
2019-01-12T02:04:54.492Z,75.79
2019-01-12T02:07:25.594Z,75.74
2019-01-12T02:09:58.029Z,75.45
2019-01-12T02:12:29.531Z,75.50
2019-01-12T02:15:00.846Z,74.86
2019-01-12T02:17:32.036Z,74.66
2019-01-12T02:20:03.194Z,74.00
2019-01-12T02:22:34.608Z,74.02
2019-01-12T02:25:06.715Z,73.50
2019-01-12T02:27:38.118Z,74.20
2019-01-12T02:30:13.944Z,74.01
2019-01-12T02:32:45.008Z,74.47
2019-01-12T02:35:16.407Z,74.71
2019-01-12T02:37:47.845Z,74.56
2019-01-12T02:40:19.202Z,75.05
2019-01-12T02:42:50.809Z,74.85
2019-01-12T02:45:22.322Z,74.90
2019-01-12T02:47:54.798Z,75.07
2019-01-12T02:50:26.141Z,75.21
2019-01-12T02:52:57.433Z,75.59
2019-01-12T02:55:28.677Z,75.62
2019-01-12T02:58:00.065Z,75.07
2019-01-12T03:00:31.434Z,75.21
2019-01-12T03:03:02.765Z,75.71
2019-01-12T03:05:33.979Z,76.00
2019-01-12T03:08:05.845Z,76.02
2019-01-12T03:10:37.193Z,76.00
2019-01-12T03:13:08.466Z,75.45
2019-01-12T03:15:39.773Z,75.12
2019-01-12T03:18:11.176Z,75.51
2019-01-12T03:20:42.626Z,75.34
2019-01-12T03:23:13.949Z,75.23
2019-01-12T03:25:45.104Z,75.38
2019-01-12T03:28:16.413Z,75.41
2019-01-12T03:30:47.718Z,75.21
2019-01-12T03:33:19.115Z,75.47
2019-01-12T03:35:50.260Z,74.99
2019-01-12T03:38:21.643Z,74.94
2019-01-12T03:40:53.090Z,74.76
2019-01-12T03:43:24.208Z,74.67
2019-01-12T03:45:55.752Z,75.15
2019-01-12T03:48:26.819Z,75.17
2019-01-12T03:50:58.331Z,75.40
2019-01-12T03:53:29.643Z,75.61
2019-01-12T03:56:00.929Z,75.57
2019-01-12T03:58:32.102Z,75.31
2019-01-12T04:01:03.479Z,75.45
2019-01-12T04:03:34.979Z,75.41
2019-01-12T04:06:06.342Z,75.63
2019-01-12T04:08:37.767Z,75.90
2019-01-12T04:11:08.893Z,75.73
2019-01-12T04:13:40.207Z,75.97
2019-01-12T04:16:11.684Z,76.00
2019-01-12T04:18:42.949Z,75.93
2019-01-12T04:21:14.279Z,76.07
2019-01-12T04:23:45.686Z,76.11
2019-01-12T04:26:16.851Z,76.13
2019-01-12T04:28:47.971Z,75.95
2019-01-12T04:31:19.263Z,75.99
2019-01-12T04:33:50.536Z,75.45
2019-01-12T04:36:21.830Z,75.73
2019-01-12T04:38:53.983Z,76.05
2019-01-12T04:41:25.087Z,75.75
2019-01-12T04:43:56.389Z,75.66
2019-01-12T04:46:27.915Z,75.47
2019-01-12T04:48:59.182Z,75.37
2019-01-12T04:51:30.605Z,75.35
2019-01-12T04:54:01.770Z,74.98
2019-01-12T04:56:33.101Z,75.15
2019-01-12T04:59:04.399Z,75.38
2019-01-12T05:01:35.666Z,75.64
2019-01-12T05:04:06.938Z,75.64
2019-01-12T05:06:38.321Z,75.10
2019-01-12T05:09:10.056Z,75.31
2019-01-12T05:11:41.337Z,75.31
2019-01-12T05:14:12.707Z,75.30
2019-01-12T05:16:44.147Z,74.99
2019-01-12T05:19:15.219Z,74.72
2019-01-12T05:21:46.323Z,74.75
2019-01-12T05:24:17.443Z,74.51
2019-01-12T05:26:48.593Z,74.40
2019-01-12T05:29:19.672Z,74.35
2019-01-12T05:31:50.888Z,73.71
2019-01-12T05:34:22.069Z,73.55
2019-01-12T05:36:53.403Z,73.67
2019-01-12T05:39:24.502Z,73.80
2019-01-12T05:41:55.927Z,73.92
2019-01-12T05:44:26.988Z,73.97
2019-01-12T05:46:58.580Z,73.71
2019-01-12T05:49:29.603Z,74.28
2019-01-12T05:52:01.049Z,73.66
2019-01-12T05:54:32.453Z,73.59
2019-01-12T05:57:03.862Z,73.18
2019-01-12T05:59:35.142Z,72.92
2019-01-12T06:02:06.616Z,73.02
2019-01-12T06:04:37.992Z,72.79
2019-01-12T06:07:09.538Z,72.67
2019-01-12T06:09:40.614Z,72.91
2019-01-12T06:12:12.191Z,72.74
2019-01-12T06:14:43.658Z,72.33
2019-01-12T06:17:15.098Z,72.16
2019-01-12T06:19:46.366Z,72.09
2019-01-12T06:22:17.782Z,72.06
2019-01-12T06:24:49.102Z,72.10
2019-01-12T06:27:20.435Z,72.39
2019-01-12T06:29:51.659Z,72.44
2019-01-12T06:32:23.100Z,72.63
2019-01-12T06:34:54.427Z,72.83
2019-01-12T06:37:25.895Z,72.73
2019-01-12T06:39:57.237Z,72.25
2019-01-12T06:42:29.033Z,72.42
2019-01-12T06:45:00.551Z,72.20
2019-01-12T06:47:32.830Z,71.79
2019-01-12T06:50:04.794Z,72.06
2019-01-12T06:52:36.035Z,71.86
2019-01-12T06:55:08.543Z,71.41
2019-01-12T06:57:39.944Z,71.46
2019-01-12T07:00:14.326Z,71.46
2019-01-12T07:02:45.706Z,72.21
2019-01-12T07:05:17.265Z,72.55
2019-01-12T07:07:48.551Z,73.72
2019-01-12T07:10:20.014Z,72.60
2019-01-12T07:12:51.427Z,72.22
2019-01-12T07:15:22.640Z,72.10
2019-01-12T07:17:54.277Z,72.38
2019-01-12T07:20:25.618Z,71.97
2019-01-12T07:22:57.981Z,72.40
2019-01-12T07:25:29.586Z,72.18
2019-01-12T07:28:01.091Z,72.70
2019-01-12T07:30:32.596Z,72.03
2019-01-12T07:33:04.242Z,71.69
2019-01-12T07:35:35.637Z,72.00
2019-01-12T07:38:07.177Z,72.22
2019-01-12T07:40:38.461Z,72.69
2019-01-12T07:43:09.724Z,72.87
2019-01-12T07:45:41.220Z,72.75
2019-01-12T07:48:12.390Z,71.42
2019-01-12T07:50:43.582Z,71.41
2019-01-12T07:53:14.883Z,71.51
2019-01-12T07:55:46.279Z,70.88
2019-01-12T07:58:17.419Z,70.58
2019-01-12T08:00:48.725Z,69.99
2019-01-12T08:03:20.117Z,69.70
2019-01-12T08:05:51.587Z,69.10
2019-01-12T08:08:23.001Z,68.68
2019-01-12T08:10:54.350Z,68.79
2019-01-12T08:13:26.006Z,68.73
2019-01-12T08:15:57.421Z,68.37
2019-01-12T08:18:28.567Z,67.83
2019-01-12T08:20:59.868Z,67.13
2019-01-12T08:23:31.153Z,66.52
2019-01-12T08:26:02.666Z,65.78
2019-01-12T08:28:33.948Z,63.95
2019-01-12T08:31:05.169Z,62.33
2019-01-12T08:33:36.750Z,60.98
2019-01-12T08:36:08.185Z,59.82
2019-01-12T08:38:39.722Z,59.87
2019-01-12T08:41:11.090Z,59.71
2019-01-12T08:43:42.542Z,59.39
2019-01-12T08:46:13.968Z,60.17
2019-01-12T08:48:45.608Z,59.87
2019-01-12T08:51:17.068Z,60.61
2019-01-12T08:53:48.574Z,61.44
2019-01-12T08:56:19.899Z,62.14
2019-01-12T08:58:51.294Z,62.07
2019-01-12T09:01:23.037Z,63.16
2019-01-12T09:03:54.166Z,63.38
2019-01-12T09:06:25.338Z,63.72
2019-01-12T09:08:56.773Z,62.98
2019-01-12T09:11:27.892Z,63.32
2019-01-12T09:13:59.223Z,62.89
2019-01-12T09:16:30.538Z,63.21
2019-01-12T09:19:01.818Z,63.03
2019-01-12T09:21:33.290Z,63.19
2019-01-12T09:24:04.892Z,62.62
2019-01-12T09:26:36.224Z,62.59
2019-01-12T09:29:07.554Z,61.26
2019-01-12T09:31:38.956Z,59.71
2019-01-12T09:34:10.179Z,59.09
2019-01-12T09:36:41.510Z,57.14
2019-01-12T09:39:12.977Z,57.04
2019-01-12T09:41:44.221Z,55.83
2019-01-12T09:44:15.318Z,54.78
2019-01-12T09:46:46.611Z,54.78
2019-01-12T09:49:17.802Z,55.19
2019-01-12T09:51:49.296Z,56.76
2019-01-12T09:54:20.694Z,55.27
2019-01-12T09:56:52.020Z,55.88
2019-01-12T09:59:23.229Z,56.05
2019-01-12T10:01:54.356Z,56.97
2019-01-12T10:04:25.786Z,58.06
2019-01-12T10:06:57.204Z,58.22
2019-01-12T10:09:28.611Z,59.02
2019-01-12T10:11:59.828Z,58.95
2019-01-12T10:14:31.217Z,56.99
2019-01-12T10:17:02.417Z,58.56
2019-01-12T10:19:33.644Z,57.82
2019-01-12T10:22:05.314Z,58.48
2019-01-12T10:24:36.460Z,58.35
2019-01-12T10:27:07.920Z,60.15
2019-01-12T10:29:39.273Z,58.55
2019-01-12T10:32:10.474Z,58.22
2019-01-12T10:34:41.742Z,58.21
2019-01-12T10:37:12.843Z,57.66
2019-01-12T10:39:44.502Z,57.06
2019-01-12T10:42:15.521Z,57.25
2019-01-12T10:44:47.067Z,57.43
2019-01-12T10:47:18.485Z,58.24
2019-01-12T10:49:49.744Z,59.39
2019-01-12T10:52:20.969Z,60.00
2019-01-12T10:54:52.538Z,60.73
2019-01-12T10:57:24.660Z,60.96
2019-01-12T10:59:56.005Z,60.80
2019-01-12T11:02:27.262Z,60.56
2019-01-12T11:04:58.784Z,59.85
2019-01-12T11:07:29.843Z,60.79
2019-01-12T11:10:04.348Z,59.90
2019-01-12T11:12:34.205Z,60.02
2019-01-12T11:15:06.343Z,59.02
2019-01-12T11:17:37.481Z,59.65
2019-01-12T11:20:09.257Z,59.98
2019-01-12T11:22:41.124Z,60.68
2019-01-12T11:25:13.442Z,60.50
2019-01-12T11:27:45.018Z,60.89
2019-01-12T11:30:18.121Z,59.92
2019-01-12T11:32:49.788Z,60.13
2019-01-12T11:35:21.227Z,59.86
2019-01-12T11:37:52.714Z,60.33
2019-01-12T11:40:24.126Z,59.43
2019-01-12T11:42:55.493Z,60.52
2019-01-12T11:45:27.993Z,60.30
2019-01-12T11:47:59.359Z,59.72
2019-01-12T11:50:30.955Z,57.84
2019-01-12T11:53:02.303Z,57.56
2019-01-12T11:55:33.950Z,56.04
2019-01-12T11:58:05.644Z,56.06
2019-01-12T12:00:36.996Z,56.51
2019-01-12T12:03:08.555Z,57.32
2019-01-12T12:05:40.069Z,57.62
2019-01-12T12:08:11.450Z,58.15
2019-01-12T12:10:42.891Z,59.24
2019-01-12T12:13:14.324Z,58.36
2019-01-12T12:15:45.739Z,57.89
2019-01-12T12:18:17.074Z,57.26
2019-01-12T12:20:48.479Z,54.89
2019-01-12T12:23:19.929Z,54.27
2019-01-12T12:25:51.389Z,52.71
2019-01-12T12:28:22.612Z,52.53
2019-01-12T12:30:53.723Z,53.43
2019-01-12T12:33:25.053Z,53.40
2019-01-12T12:35:56.538Z,52.76
2019-01-12T12:38:27.931Z,53.14
2019-01-12T12:40:59.341Z,54.34
2019-01-12T12:43:30.683Z,54.86
2019-01-12T12:46:01.858Z,54.58
2019-01-12T12:48:33.533Z,54.35
2019-01-12T12:51:05.166Z,55.45
2019-01-12T12:53:36.505Z,55.10
2019-01-12T12:56:08.116Z,55.93
2019-01-12T12:58:39.583Z,56.14
2019-01-12T13:01:11.038Z,56.86
2019-01-12T13:03:42.540Z,57.03
2019-01-12T13:06:14.204Z,56.38
2019-01-12T13:08:48.569Z,57.41
2019-01-12T13:11:18.461Z,57.43
2019-01-12T13:13:49.893Z,58.07
2019-01-12T13:16:21.024Z,58.70
2019-01-12T13:18:52.666Z,58.61
2019-01-12T13:21:24.149Z,57.65
2019-01-12T13:23:55.522Z,57.94
2019-01-12T13:26:26.907Z,58.11
2019-01-12T13:28:58.476Z,58.33
2019-01-12T13:31:29.972Z,59.20
2019-01-12T13:34:01.227Z,59.19
2019-01-12T13:36:32.421Z,59.24
2019-01-12T13:39:03.974Z,59.14
2019-01-12T13:41:36.258Z,59.19
2019-01-12T13:44:07.457Z,59.14
2019-01-12T13:46:38.802Z,59.51
2019-01-12T13:49:10.261Z,58.78
2019-01-12T13:51:41.745Z,59.00
2019-01-12T13:54:13.204Z,58.98
2019-01-12T13:56:44.433Z,59.18
2019-01-12T13:59:15.728Z,59.13
2019-01-12T14:01:46.989Z,59.51
2019-01-12T14:04:18.130Z,58.59
2019-01-12T14:06:49.444Z,59.71
2019-01-12T14:09:22.307Z,60.54
2019-01-12T14:11:53.784Z,61.09
2019-01-12T14:14:24.939Z,60.70
2019-01-12T14:16:56.397Z,60.94
2019-01-12T14:19:27.775Z,61.23
2019-01-12T14:21:58.890Z,60.63
2019-01-12T14:24:30.274Z,60.52
2019-01-12T14:27:01.554Z,60.82
2019-01-12T14:29:32.808Z,62.24
2019-01-12T14:32:04.056Z,62.15
2019-01-12T14:34:35.142Z,62.35
2019-01-12T14:37:06.770Z,62.27
2019-01-12T14:39:37.909Z,62.47
2019-01-12T14:42:09.032Z,62.91
2019-01-12T14:44:40.186Z,62.98
2019-01-12T14:47:11.502Z,63.40
2019-01-12T14:49:42.559Z,63.90
2019-01-12T14:52:14.061Z,63.45
2019-01-12T14:54:45.431Z,63.02
2019-01-12T14:57:16.836Z,63.92
2019-01-12T14:59:47.915Z,63.58
2019-01-12T15:02:19.111Z,63.27
2019-01-12T15:04:50.557Z,63.62
2019-01-12T15:07:21.940Z,64.89
2019-01-12T15:09:53.014Z,64.15
2019-01-12T15:12:24.147Z,63.38
2019-01-12T15:14:55.625Z,63.43
2019-01-12T15:17:26.873Z,63.09
2019-01-12T15:19:58.263Z,62.59
2019-01-12T15:22:29.398Z,62.84
2019-01-12T15:25:00.787Z,63.20
2019-01-12T15:27:32.281Z,62.61
2019-01-12T15:30:04.246Z,62.61
2019-01-12T15:32:35.640Z,62.82
2019-01-12T15:35:06.963Z,62.59
2019-01-12T15:37:38.399Z,62.92
2019-01-12T15:40:11.407Z,63.05
2019-01-12T15:42:42.909Z,63.70
2019-01-12T15:45:17.306Z,64.00
2019-01-12T15:47:48.524Z,64.34
2019-01-12T15:50:21.460Z,64.16
2019-01-12T15:52:52.774Z,64.64
2019-01-12T15:55:24.515Z,64.31
2019-01-12T15:57:55.971Z,64.24
2019-01-12T16:00:28.782Z,64.45
2019-01-12T16:03:00.166Z,64.33
2019-01-12T16:05:31.849Z,64.78
2019-01-12T16:08:03.192Z,64.41
2019-01-12T16:10:34.346Z,64.58
2019-01-12T16:13:05.946Z,64.74
2019-01-12T16:15:37.206Z,65.07
2019-01-12T16:18:08.494Z,65.13
2019-01-12T16:20:43.206Z,65.37
2019-01-12T16:23:15.017Z,65.25
2019-01-12T16:25:46.354Z,65.34
2019-01-12T16:28:23.276Z,65.38
2019-01-12T16:30:50.845Z,65.21
2019-01-12T16:33:22.066Z,65.65
2019-01-12T16:35:53.422Z,65.97
2019-01-12T16:38:24.983Z,65.80
2019-01-12T16:40:56.145Z,66.33
2019-01-12T16:43:27.600Z,66.08
2019-01-12T16:45:59.189Z,66.31
2019-01-12T16:48:30.633Z,65.91
2019-01-12T16:51:02.081Z,65.89
2019-01-12T16:53:33.390Z,65.99
2019-01-12T16:56:04.537Z,65.73
2019-01-12T16:58:35.983Z,65.43
2019-01-12T17:01:07.384Z,66.03
2019-01-12T17:03:38.530Z,66.65
2019-01-12T17:06:10.022Z,66.60
2019-01-12T17:08:41.345Z,66.46
2019-01-12T17:11:12.790Z,66.32
2019-01-12T17:13:44.385Z,66.06
2019-01-12T17:16:15.988Z,66.21
2019-01-12T17:18:47.384Z,66.35
2019-01-12T17:21:18.634Z,66.54
2019-01-12T17:23:49.751Z,66.76
2019-01-12T17:26:21.174Z,66.87
2019-01-12T17:28:52.311Z,66.71
2019-01-12T17:31:23.666Z,66.96
2019-01-12T17:33:55.130Z,67.22
2019-01-12T17:36:26.364Z,67.60
2019-01-12T17:38:57.811Z,67.67
2019-01-12T17:41:29.169Z,67.95
2019-01-12T17:44:00.647Z,68.12
2019-01-12T17:46:32.054Z,68.35
2019-01-12T17:49:03.493Z,68.29
2019-01-12T17:51:34.605Z,67.98
2019-01-12T17:54:06.309Z,67.90
2019-01-12T17:56:37.410Z,68.30
2019-01-12T17:59:08.793Z,67.53
2019-01-12T18:01:40.355Z,67.59
2019-01-12T18:04:11.743Z,67.30
2019-01-12T18:06:43.148Z,67.07
2019-01-12T18:09:14.497Z,66.57
2019-01-12T18:11:45.956Z,66.54
2019-01-12T18:14:18.052Z,67.04
2019-01-12T18:16:49.120Z,66.70
2019-01-12T18:19:21.316Z,67.39
2019-01-12T18:21:52.430Z,66.16
2019-01-12T18:24:23.771Z,65.93
2019-01-12T18:26:54.933Z,65.92
2019-01-12T18:29:26.351Z,66.31
2019-01-12T18:31:57.436Z,66.69
2019-01-12T18:34:28.906Z,66.76
2019-01-12T18:37:00.005Z,66.76
2019-01-12T18:39:31.459Z,66.15
2019-01-12T18:42:03.149Z,66.14
2019-01-12T18:44:34.435Z,65.89
2019-01-12T18:47:05.711Z,65.90
2019-01-12T18:49:36.954Z,66.22
2019-01-12T18:52:08.225Z,66.25
2019-01-12T18:54:39.737Z,66.26
2019-01-12T18:57:11.048Z,66.17
2019-01-12T18:59:42.300Z,65.87
2019-01-12T19:02:13.678Z,66.18
2019-01-12T19:04:45.125Z,66.10
2019-01-12T19:07:16.442Z,65.91
2019-01-12T19:09:47.810Z,66.20
2019-01-12T19:12:19.006Z,65.78
2019-01-12T19:14:50.548Z,65.58
2019-01-12T19:17:21.612Z,65.33
2019-01-12T19:19:52.754Z,65.58
2019-01-12T19:22:24.231Z,65.74
2019-01-12T19:24:55.707Z,66.05
2019-01-12T19:27:26.941Z,66.06
2019-01-12T19:29:58.179Z,65.93
2019-01-12T19:32:29.252Z,66.16
2019-01-12T19:35:00.385Z,65.88
2019-01-12T19:37:31.529Z,65.99
2019-01-12T19:40:02.740Z,65.88
2019-01-12T19:42:34.071Z,65.96
2019-01-12T19:45:06.370Z,66.08
2019-01-12T19:47:37.901Z,66.34
2019-01-12T19:50:11.309Z,66.30
2019-01-12T19:52:42.556Z,66.37
2019-01-12T19:55:13.958Z,66.42
2019-01-12T19:57:45.027Z,66.90
2019-01-12T20:00:21.730Z,67.37
2019-01-12T20:02:53.049Z,66.66
2019-01-12T20:05:24.457Z,66.48
2019-01-12T20:07:56.553Z,66.72
2019-01-12T20:10:27.879Z,67.22
2019-01-12T20:12:59.285Z,67.22
2019-01-12T20:15:30.679Z,67.28
2019-01-12T20:18:01.734Z,67.80
2019-01-12T20:20:32.942Z,67.53
2019-01-12T20:23:04.376Z,67.43
2019-01-12T20:25:35.938Z,67.25
2019-01-12T20:28:10.624Z,67.46
2019-01-12T20:31:12.942Z,67.64
2019-01-12T20:34:29.235Z,67.76
2019-01-12T20:37:49.207Z,68.22
2019-01-12T20:41:00.681Z,68.17
2019-01-12T20:44:09.604Z,68.21
2019-01-12T20:47:22.029Z,68.40
2019-01-12T20:50:27.480Z,68.25
2019-01-12T20:53:24.715Z,67.97
2019-01-12T20:56:16.252Z,68.09
2019-01-12T20:59:09.817Z,69.31
2019-01-12T21:02:05.671Z,69.41
2019-01-12T21:05:22.459Z,69.14
2019-01-12T21:08:34.529Z,69.28
2019-01-12T21:11:32.453Z,70.02
2019-01-12T21:14:33.243Z,70.57
2019-01-12T21:17:12.379Z,70.48
2019-01-12T21:19:47.986Z,70.76
2019-01-12T21:22:16.313Z,70.88
2019-01-12T21:24:47.741Z,70.89
2019-01-12T21:27:19.245Z,70.97
2019-01-12T21:29:50.887Z,71.41
2019-01-12T21:32:22.248Z,71.01
2019-01-12T21:34:53.524Z,70.62
2019-01-12T21:37:24.923Z,70.61
2019-01-12T21:39:56.440Z,70.89
2019-01-12T21:42:27.856Z,70.91
2019-01-12T21:44:59.064Z,71.04
2019-01-12T21:47:30.375Z,71.69
2019-01-12T21:50:01.817Z,71.69
2019-01-12T21:52:33.007Z,71.90
2019-01-12T21:55:04.771Z,71.62
2019-01-12T21:57:37.272Z,71.59
2019-01-12T22:00:11.851Z,71.21
2019-01-12T22:02:43.126Z,71.66
2019-01-12T22:05:14.758Z,71.80
2019-01-12T22:07:46.080Z,72.25
2019-01-12T22:10:19.287Z,71.91
2019-01-12T22:12:50.621Z,71.69
2019-01-12T22:15:22.021Z,71.35
2019-01-12T22:17:53.310Z,71.62
2019-01-12T22:20:24.800Z,71.58
2019-01-12T22:22:56.209Z,72.05
2019-01-12T22:25:27.598Z,72.12
2019-01-12T22:27:59.110Z,71.60
2019-01-12T22:30:30.385Z,72.41
2019-01-12T22:33:01.811Z,71.84
2019-01-12T22:35:33.219Z,72.01
2019-01-12T22:38:04.609Z,71.79
2019-01-12T22:40:35.900Z,71.76
2019-01-12T22:43:07.358Z,71.70
2019-01-12T22:45:38.521Z,71.11
2019-01-12T22:48:10.014Z,71.41
2019-01-12T22:50:41.163Z,70.87
2019-01-12T22:53:12.406Z,71.23
2019-01-12T22:55:43.860Z,70.63
2019-01-12T22:58:15.231Z,70.56
2019-01-12T23:01:06.943Z,70.20
2019-01-12T23:03:38.570Z,70.45
2019-01-12T23:06:09.825Z,70.36
2019-01-12T23:08:41.155Z,70.34
2019-01-12T23:11:12.649Z,70.41
2019-01-12T23:13:44.077Z,70.36
2019-01-12T23:16:15.559Z,70.36
2019-01-12T23:18:47.066Z,70.64
2019-01-12T23:21:18.261Z,70.27
2019-01-12T23:23:49.558Z,69.68
2019-01-12T23:26:20.745Z,70.08
2019-01-12T23:28:52.226Z,70.33
2019-01-12T23:31:23.541Z,69.97
2019-01-12T23:33:54.901Z,69.99
2019-01-12T23:36:26.410Z,69.89
2019-01-12T23:38:57.879Z,69.61
2019-01-12T23:41:29.073Z,69.54
2019-01-12T23:44:00.431Z,69.92
2019-01-12T23:46:31.844Z,69.72
2019-01-12T23:49:03.306Z,69.81
2019-01-12T23:51:34.697Z,70.07
2019-01-12T23:54:06.020Z,69.59
2019-01-12T23:56:37.053Z,69.36
2019-01-12T23:59:08.415Z,68.83
